Time;durP1;ratioP1;P1;durP2;ratioP2;P2;SDS_P1;SDS_P2;PMS_P1;PMS_P2;Temp;Humidity;BMP_temperature;BMP_pressure;BME280_temperature;BME280_humidity;BME280_pressure;Samples;Min_cycle;Max_cycle;Signal;HPM_P1;HPM_P2
2021/01/28 00:01:26;;;;;;;124.50;50.40;;;-2.50;99.90;;;;;;5075851;28;20029;-83
2021/01/28 00:03:52;;;;;;;118.68;51.03;;;-2.50;99.90;;;;;;5075908;28;20044;-82
2021/01/28 00:06:17;;;;;;;120.38;49.50;;;-2.50;99.90;;;;;;5076441;28;20028;-82
2021/01/28 00:08:43;;;;;;;155.02;62.25;;;-2.50;99.90;;;;;;5074998;28;20027;-82
2021/01/28 00:11:09;;;;;;;146.32;58.30;;;-2.50;99.90;;;;;;5076012;28;20031;-82
2021/01/28 00:13:34;;;;;;;117.25;50.63;;;-2.50;99.90;;;;;;5075839;28;20020;-82
2021/01/28 00:16:00;;;;;;;110.43;45.13;;;-2.50;99.90;;;;;;5076214;28;20020;-82
2021/01/28 00:18:26;;;;;;;212.27;83.32;;;-2.50;99.90;;;;;;5074427;28;20378;-82
2021/01/28 00:20:51;;;;;;;185.73;76.80;;;-2.60;99.90;;;;;;5074665;28;20024;-83
2021/01/28 00:23:18;;;;;;;138.23;55.10;;;-2.70;99.90;;;;;;5075315;28;20115;-83
2021/01/28 00:25:44;;;;;;;121.78;51.47;;;-2.60;99.90;;;;;;5057660;28;20043;-83
2021/01/28 00:28:12;;;;;;;158.77;62.83;;;-2.60;99.90;;;;;;5075544;28;20119;-83
2021/01/28 00:30:41;;;;;;;130.88;55.35;;;-2.60;99.90;;;;;;5057539;28;20032;-82
2021/01/28 00:33:08;;;;;;;142.15;57.78;;;-2.70;99.90;;;;;;5075887;28;20027;-82
2021/01/28 00:35:39;;;;;;;110.38;47.50;;;-2.80;99.90;;;;;;5075880;28;20029;-82
2021/01/28 00:38:14;;;;;;;125.75;48.78;;;-2.80;99.90;;;;;;5057497;28;20020;-82
2021/01/28 00:40:40;;;;;;;118.53;52.03;;;-2.90;99.90;;;;;;5057754;28;20025;-83
2021/01/28 00:43:06;;;;;;;135.60;56.30;;;-2.90;99.90;;;;;;5060404;28;20033;-83
2021/01/28 00:45:32;;;;;;;144.95;59.25;;;-2.90;99.90;;;;;;5036843;28;20017;-82
2021/01/28 00:47:59;;;;;;;122.32;52.30;;;-3.10;99.90;;;;;;5052149;28;20418;-82
2021/01/28 00:50:27;;;;;;;127.93;53.38;;;-3.10;99.90;;;;;;5071805;28;20028;-82
2021/01/28 00:52:53;;;;;;;129.70;53.63;;;-3.20;99.90;;;;;;5074155;28;20033;-83
2021/01/28 00:55:19;;;;;;;224.23;90.97;;;-3.30;99.90;;;;;;5074579;28;20357;-83
2021/01/28 00:57:45;;;;;;;130.10;55.28;;;-3.40;99.90;;;;;;5073955;28;20020;-83
2021/01/28 01:00:16;;;;;;;124.00;49.83;;;-3.50;99.90;;;;;;5073992;28;20035;-82
2021/01/28 01:02:43;;;;;;;109.68;44.75;;;-3.50;99.90;;;;;;5075048;28;20151;-82
2021/01/28 01:05:13;;;;;;;103.43;44.05;;;-3.60;99.90;;;;;;5071895;28;20013;-82
2021/01/28 01:07:39;;;;;;;116.30;48.05;;;-3.60;99.90;;;;;;5074733;28;20095;-82
2021/01/28 01:10:09;;;;;;;105.25;45.75;;;-3.60;99.90;;;;;;5075267;28;20128;-82
2021/01/28 01:12:35;;;;;;;132.55;50.78;;;-3.60;99.90;;;;;;5075244;28;20437;-82
2021/01/28 01:15:00;;;;;;;171.48;73.90;;;-3.70;99.90;;;;;;5075021;28;20104;-82
2021/01/28 01:17:26;;;;;;;113.35;49.20;;;-3.70;99.90;;;;;;5073157;28;20024;-82
2021/01/28 01:19:52;;;;;;;104.97;44.00;;;-3.80;99.90;;;;;;5074874;28;20024;-82
2021/01/28 01:22:17;;;;;;;125.55;46.70;;;-3.80;99.90;;;;;;5056802;28;20051;-82
2021/01/28 01:24:43;;;;;;;120.85;53.40;;;-3.80;99.90;;;;;;5056767;28;20032;-82
2021/01/28 01:27:09;;;;;;;133.68;54.47;;;-3.80;99.90;;;;;;5073275;28;20048;-82
2021/01/28 01:29:34;;;;;;;132.00;57.03;;;-3.80;99.90;;;;;;5056799;28;20060;-82
2021/01/28 01:32:00;;;;;;;123.00;48.55;;;-3.80;99.90;;;;;;5073453;28;20021;-82
2021/01/28 01:34:26;;;;;;;114.57;47.70;;;-3.90;99.90;;;;;;5074311;28;20016;-82
2021/01/28 01:36:51;;;;;;;101.97;45.13;;;-3.80;99.90;;;;;;5074394;28;20021;-82
2021/01/28 01:39:17;;;;;;;124.45;54.60;;;-3.90;99.90;;;;;;5074637;28;20025;-82
2021/01/28 01:41:43;;;;;;;138.95;55.22;;;-3.90;99.90;;;;;;5056257;28;20083;-82
2021/01/28 01:44:08;;;;;;;162.05;62.53;;;-3.90;99.90;;;;;;5056180;28;20032;-82
2021/01/28 01:46:35;;;;;;;127.63;52.83;;;-3.90;99.90;;;;;;5072805;28;20017;-82
2021/01/28 01:49:07;;;;;;;126.20;50.00;;;-4.00;99.90;;;;;;5056244;28;20039;-82
2021/01/28 01:51:38;;;;;;;153.55;57.72;;;-4.10;99.90;;;;;;5074134;28;20104;-81
2021/01/28 01:54:24;;;;;;;219.07;73.97;;;-4.20;99.90;;;;;;5056079;28;20035;-82
2021/01/28 01:57:02;;;;;;;217.95;77.78;;;-4.40;99.90;;;;;;5056295;28;20031;-81
2021/01/28 01:59:42;;;;;;;179.47;64.93;;;-4.40;99.90;;;;;;5072974;28;20017;-81
2021/01/28 02:02:13;;;;;;;182.27;64.17;;;-4.50;99.90;;;;;;5073004;28;20491;-81
2021/01/28 02:04:41;;;;;;;172.93;63.42;;;-4.60;99.90;;;;;;5073674;28;20047;-82
2021/01/28 02:07:18;;;;;;;158.23;57.23;;;-4.60;99.90;;;;;;5055916;28;20020;-82
2021/01/28 02:09:43;;;;;;;151.23;53.53;;;-4.70;99.90;;;;;;5073734;28;20092;-82
2021/01/28 02:12:09;;;;;;;152.23;56.08;;;-4.80;99.90;;;;;;5072416;28;20545;-82
2021/01/28 02:14:36;;;;;;;140.67;54.50;;;-4.90;99.90;;;;;;5072254;28;20020;-81
2021/01/28 02:17:05;;;;;;;161.63;59.07;;;-4.90;99.90;;;;;;5073627;28;20044;-81
2021/01/28 02:19:52;;;;;;;145.48;54.47;;;-5.10;99.90;;;;;;5055553;28;20028;-82
2021/01/28 02:22:26;;;;;;;134.20;50.10;;;-5.30;99.90;;;;;;5073954;28;20035;-82
2021/01/28 02:25:04;;;;;;;123.57;46.27;;;-5.40;99.90;;;;;;5072433;28;20032;-82
2021/01/28 02:27:31;;;;;;;108.70;44.73;;;-5.50;99.90;;;;;;5055439;28;20086;-81
2021/01/28 02:29:57;;;;;;;112.83;45.77;;;-5.50;99.90;;;;;;5073535;28;20020;-82
2021/01/28 02:32:23;;;;;;;103.30;40.23;;;-5.70;99.90;;;;;;5072636;28;20374;-82
2021/01/28 02:34:49;;;;;;;107.17;41.20;;;-5.80;99.90;;;;;;5071953;28;20024;-82
2021/01/28 02:37:18;;;;;;;122.87;46.73;;;-6.00;99.90;;;;;;5072481;28;20032;-81
2021/01/28 02:39:44;;;;;;;124.03;43.97;;;-6.10;99.90;;;;;;5073121;28;20027;-81
2021/01/28 02:42:26;;;;;;;104.47;42.93;;;-6.10;99.90;;;;;;5073215;28;20095;-82
2021/01/28 02:44:52;;;;;;;145.88;52.95;;;-6.20;99.90;;;;;;5072423;28;20047;-81
2021/01/28 02:47:18;;;;;;;125.10;46.67;;;-6.40;99.90;;;;;;5072226;28;20021;-81
2021/01/28 02:49:44;;;;;;;151.43;53.77;;;-6.40;99.90;;;;;;5072011;28;20035;-81
2021/01/28 02:52:10;;;;;;;122.70;52.40;;;-6.50;99.90;;;;;;5073428;28;20025;-82
2021/01/28 02:54:46;;;;;;;145.53;52.27;;;-6.50;99.90;;;;;;5054887;28;20028;-82
2021/01/28 02:57:13;;;;;;;124.90;49.10;;;-6.60;99.90;;;;;;5055036;28;20553;-81
2021/01/28 02:59:38;;;;;;;118.70;46.37;;;-6.70;99.90;;;;;;5055266;28;20107;-81
2021/01/28 03:02:11;;;;;;;113.67;47.07;;;-6.80;99.90;;;;;;5072881;28;20114;-81
2021/01/28 03:04:38;;;;;;;132.30;48.17;;;-6.90;99.90;;;;;;5072555;28;20040;-81
2021/01/28 03:07:05;;;;;;;171.90;55.33;;;-7.00;99.90;;;;;;5054337;28;20028;-83
2021/01/28 03:09:31;;;;;;;107.77;45.20;;;-7.00;99.90;;;;;;5054686;28;20028;-80
2021/01/28 03:11:57;;;;;;;116.73;45.97;;;-7.10;99.90;;;;;;5073220;28;20029;-83
2021/01/28 03:14:22;;;;;;;118.77;45.23;;;-7.30;99.80;;;;;;5071536;28;20025;-83
2021/01/28 03:16:48;;;;;;;112.43;41.80;;;-7.40;99.90;;;;;;5071742;28;20031;-84
2021/01/28 03:19:14;;;;;;;105.17;42.17;;;-7.40;99.90;;;;;;5071324;28;20111;-83
2021/01/28 03:21:39;;;;;;;107.57;40.80;;;-7.50;99.40;;;;;;5071461;28;20096;-84
2021/01/28 03:24:06;;;;;;;103.20;38.70;;;-7.60;97.20;;;;;;5071380;28;20078;-84
2021/01/28 03:26:31;;;;;;;107.83;41.77;;;-7.60;97.60;;;;;;5054469;28;20025;-83
2021/01/28 03:28:57;;;;;;;110.03;40.30;;;-7.60;98.30;;;;;;5071410;28;20027;-83
2021/01/28 03:31:23;;;;;;;89.67;38.70;;;-7.70;99.00;;;;;;5071652;28;20492;-82
2021/01/28 03:33:49;;;;;;;106.80;42.30;;;-7.70;97.80;;;;;;5072007;28;20036;-82
2021/01/28 03:36:15;;;;;;;114.60;40.77;;;-7.80;98.20;;;;;;5071232;28;20086;-84
2021/01/28 03:38:41;;;;;;;116.20;39.37;;;-7.80;99.90;;;;;;5054774;28;20028;-83
2021/01/28 03:41:06;;;;;;;116.83;45.33;;;-7.80;99.90;;;;;;5071540;28;20020;-83
2021/01/28 03:43:32;;;;;;;111.87;45.93;;;-7.90;99.90;;;;;;5072611;28;20035;-82
2021/01/28 03:45:58;;;;;;;122.80;46.90;;;-7.90;99.90;;;;;;5072845;28;20020;-84
2021/01/28 03:48:24;;;;;;;101.93;41.13;;;-8.00;99.90;;;;;;5072461;28;20025;-82
2021/01/28 03:50:50;;;;;;;105.10;41.37;;;-8.00;99.90;;;;;;5072416;28;20025;-83
2021/01/28 03:53:15;;;;;;;104.20;39.83;;;-8.10;99.90;;;;;;5054738;28;20545;-81
2021/01/28 03:55:41;;;;;;;91.83;38.63;;;-8.10;99.00;;;;;;5071368;28;20107;-84
2021/01/28 03:58:07;;;;;;;100.67;38.57;;;-8.20;97.50;;;;;;5071168;28;20024;-81
2021/01/28 04:00:34;;;;;;;93.33;37.57;;;-8.20;96.00;;;;;;5072395;28;20012;-83
2021/01/28 04:03:02;;;;;;;96.23;40.07;;;-8.30;94.50;;;;;;5072062;28;20048;-81
2021/01/28 04:05:28;;;;;;;101.60;39.27;;;-8.30;93.40;;;;;;5054322;28;20111;-83
2021/01/28 04:07:54;;;;;;;96.40;36.20;;;-8.40;93.70;;;;;;5053743;28;20111;-84
2021/01/28 04:10:24;;;;;;;88.83;36.40;;;-8.40;93.80;;;;;;5054306;28;20055;-83
2021/01/28 04:12:50;;;;;;;99.13;38.30;;;-8.50;94.20;;;;;;5054277;28;20378;-84
2021/01/28 04:15:17;;;;;;;111.10;41.93;;;-8.50;93.90;;;;;;5070916;28;20038;-83
2021/01/28 04:17:43;;;;;;;89.30;35.50;;;-8.60;93.60;;;;;;5073005;28;20023;-83
2021/01/28 04:20:10;;;;;;;97.17;36.43;;;-8.60;93.90;;;;;;5075809;28;20059;-83
2021/01/28 04:22:35;;;;;;;93.43;34.83;;;-8.60;94.30;;;;;;5057914;28;20027;-83
2021/01/28 04:25:02;;;;;;;77.60;32.50;;;-8.60;93.50;;;;;;5074480;28;20119;-83
2021/01/28 04:27:28;;;;;;;88.97;35.83;;;-8.70;93.30;;;;;;5058087;28;20024;-83
2021/01/28 04:29:55;;;;;;;89.63;38.57;;;-8.70;92.80;;;;;;5074279;28;20024;-83
2021/01/28 04:32:20;;;;;;;101.83;41.43;;;-8.80;90.60;;;;;;5058178;28;20420;-83
2021/01/28 04:34:46;;;;;;;99.87;39.80;;;-8.80;91.10;;;;;;5075878;28;20029;-83
2021/01/28 04:37:11;;;;;;;107.50;40.77;;;-8.80;91.80;;;;;;5075317;28;20028;-82
2021/01/28 04:39:41;;;;;;;90.17;37.23;;;-8.90;93.50;;;;;;5073971;28;20028;-82
2021/01/28 04:42:11;;;;;;;94.23;36.30;;;-8.90;94.40;;;;;;5073037;28;20386;-83
2021/01/28 04:44:37;;;;;;;101.07;37.00;;;-9.00;93.80;;;;;;5057262;28;20040;-83
2021/01/28 04:47:02;;;;;;;112.40;41.27;;;-9.00;96.10;;;;;;5073397;28;20124;-83
2021/01/28 04:49:29;;;;;;;96.40;36.27;;;-9.00;95.70;;;;;;5072937;28;20025;-82
2021/01/28 04:52:04;;;;;;;88.13;34.10;;;-9.10;94.20;;;;;;5084761;28;20435;-82
2021/01/28 04:54:35;;;;;;;103.23;37.57;;;-9.10;94.00;;;;;;5077449;28;20024;-81
2021/01/28 04:57:20;;;;;;;111.27;46.93;;;-9.10;92.50;;;;;;5095627;28;20024;-81
2021/01/28 05:03:20;;;;;;;135.57;50.37;;;-9.30;90.30;;;;;;5095231;28;20039;-81
2021/01/28 05:05:49;;;;;;;145.67;52.07;;;-9.30;90.80;;;;;;5077474;28;20478;-82
2021/01/28 05:08:15;;;;;;;144.70;53.33;;;-9.30;90.90;;;;;;5077190;28;20031;-81
2021/01/28 05:10:46;;;;;;;138.17;47.43;;;-9.30;91.10;;;;;;5077038;28;20016;-81
2021/01/28 05:13:27;;;;;;;136.40;49.83;;;-9.40;90.00;;;;;;5077110;28;20020;-81
2021/01/28 05:15:53;;;;;;;160.40;51.30;;;-9.40;89.50;;;;;;5086531;28;20028;-82
2021/01/28 05:18:33;;;;;;;141.13;48.90;;;-9.40;89.60;;;;;;5082600;28;20466;-81
2021/01/28 05:21:20;;;;;;;116.77;44.60;;;-9.50;89.60;;;;;;5074946;28;20078;-82
2021/01/28 05:23:46;;;;;;;125.13;45.47;;;-9.50;88.70;;;;;;5074620;28;20117;-82
2021/01/28 05:26:28;;;;;;;131.10;48.70;;;-9.50;87.10;;;;;;5073512;28;20108;-82
2021/01/28 05:28:54;;;;;;;90.07;37.50;;;-9.60;87.90;;;;;;5074084;28;20041;-82
2021/01/28 05:31:32;;;;;;;110.03;41.83;;;-9.60;88.40;;;;;;5073276;28;20447;-82
2021/01/28 05:34:09;;;;;;;96.23;35.40;;;-9.60;88.00;;;;;;5056931;28;20067;-82
2021/01/28 05:36:41;;;;;;;90.93;34.87;;;-9.70;87.80;;;;;;5056477;28;20021;-82
2021/01/28 05:39:25;;;;;;;90.18;36.30;;;-9.70;88.50;;;;;;5074490;28;20086;-82
2021/01/28 05:42:02;;;;;;;80.33;31.13;;;-9.80;88.60;;;;;;5073111;28;20035;-82
2021/01/28 05:44:31;;;;;;;78.90;29.43;;;-9.80;88.80;;;;;;5055985;28;20028;-82
2021/01/28 05:47:07;;;;;;;96.40;32.80;;;-9.80;90.30;;;;;;5072961;28;20016;-80
2021/01/28 05:49:36;;;;;;;85.17;32.77;;;-9.90;92.80;;;;;;5074191;28;20087;-80
2021/01/28 05:52:19;;;;;;;89.50;33.00;;;-9.90;93.40;;;;;;5056048;28;20012;-80
2021/01/28 05:55:00;;;;;;;;;;;-9.90;93.80;;;;;;5074621;28;20024;-80
2021/01/28 05:57:31;;;;;;;76.80;28.90;;;-9.80;93.20;;;;;;5074108;28;19935;-81
2021/01/28 06:00:18;;;;;;;106.43;39.07;;;-9.80;92.40;;;;;;5056040;28;20021;-80
2021/01/28 06:02:59;;;;;;;93.50;34.80;;;-9.80;92.40;;;;;;5072607;28;20055;-80
2021/01/28 06:05:29;;;;;;;88.07;33.77;;;-9.80;92.60;;;;;;5072752;28;20082;-80
2021/01/28 06:08:24;;;;;;;97.33;39.67;;;-9.70;93.90;;;;;;5072310;28;20048;-81
2021/01/28 06:11:29;;;;;;;107.43;39.43;;;-9.70;93.50;;;;;;5071572;28;20037;-80
2021/01/28 06:14:26;;;;;;;108.60;39.67;;;-9.70;91.60;;;;;;5072026;28;20116;-80
2021/01/28 06:17:19;;;;;;;94.77;37.70;;;-9.80;89.70;;;;;;5072541;28;20060;-80
2021/01/28 06:20:16;;;;;;;86.93;31.48;;;-9.80;88.80;;;;;;5073699;28;20038;-80
2021/01/28 06:23:22;;;;;;;86.97;33.23;;;-9.90;88.80;;;;;;5073858;28;20032;-80
2021/01/28 06:26:10;;;;;;;99.67;34.20;;;-9.90;89.40;;;;;;5072224;28;20043;-80
2021/01/28 06:28:56;;;;;;;137.33;47.97;;;-9.90;89.70;;;;;;5073351;28;20037;-80
2021/01/28 06:31:40;;;;;;;117.50;44.40;;;-9.90;89.40;;;;;;5073510;28;20466;-79
2021/01/28 06:34:41;;;;;;;121.97;47.30;;;-9.90;89.50;;;;;;5066731;28;20498;-80
2021/01/28 06:37:42;;;;;;;127.17;48.33;;;-9.90;89.70;;;;;;5064004;28;20067;-81
2021/01/28 06:40:13;;;;;;;142.73;50.47;;;-9.90;90.30;;;;;;5006199;28;20040;-80
2021/01/28 06:42:48;;;;;;;144.33;52.37;;;-9.90;90.70;;;;;;5056366;28;20035;-80
2021/01/28 06:45:20;;;;;;;118.53;43.10;;;-9.80;91.00;;;;;;5073391;28;20036;-80
2021/01/28 06:48:18;;;;;;;142.23;51.47;;;-9.80;91.00;;;;;;5055457;28;20024;-79
2021/01/28 06:51:08;;;;;;;144.20;52.87;;;-9.80;90.50;;;;;;5054360;28;20112;-80
2021/01/28 06:53:52;;;;;;;138.37;56.80;;;-9.80;90.50;;;;;;5080746;28;20012;-81
2021/01/28 06:56:48;;;;;;;125.13;48.27;;;-9.70;91.00;;;;;;5087029;28;20073;-80
2021/01/28 06:59:47;;;;;;;93.60;38.00;;;-9.70;90.80;;;;;;5068361;28;20112;-80
2021/01/28 07:02:31;;;;;;;122.13;45.70;;;-9.70;91.10;;;;;;5067580;28;20025;-80
2021/01/28 07:05:26;;;;;;;174.47;60.70;;;-9.60;91.80;;;;;;5071757;28;20044;-80
2021/01/28 07:08:18;;;;;;;118.27;46.93;;;-9.60;94.10;;;;;;5071040;28;20070;-80
2021/01/28 07:10:43;;;;;;;146.10;60.77;;;-9.50;96.40;;;;;;5055883;28;20474;-80
2021/01/28 07:13:15;;;;;;;136.80;55.77;;;-9.40;96.50;;;;;;5053400;28;20032;-80
2021/01/28 07:15:46;;;;;;;152.68;59.08;;;-9.30;97.00;;;;;;5071998;28;20420;-80
2021/01/28 07:18:21;;;;;;;116.47;47.53;;;-9.20;95.10;;;;;;5066227;28;20044;-80
2021/01/28 07:21:00;;;;;;;119.10;44.07;;;-9.00;96.00;;;;;;5067407;28;20107;-80
2021/01/28 07:23:30;;;;;;;121.87;46.07;;;-8.90;94.90;;;;;;5070167;28;20048;-80
2021/01/28 07:26:14;;;;;;;147.37;58.67;;;-8.80;94.10;;;;;;5072087;28;20020;-80
2021/01/28 07:28:42;;;;;;;171.77;67.40;;;-8.70;93.30;;;;;;5053396;28;20381;-81
2021/01/28 07:31:08;;;;;;;156.77;63.10;;;-8.50;92.50;;;;;;5070379;28;20060;-80
2021/01/28 07:33:47;;;;;;;162.30;62.10;;;-8.40;92.00;;;;;;5073559;28;20086;-79
2021/01/28 07:36:25;;;;;;;159.70;61.83;;;-8.30;91.50;;;;;;5067240;28;20020;-80
2021/01/28 07:38:53;;;;;;;178.00;71.30;;;-8.20;90.80;;;;;;5071740;28;20037;-80
2021/01/28 07:41:34;;;;;;;194.37;72.90;;;-8.00;90.00;;;;;;5070701;28;20363;-81
2021/01/28 07:44:26;;;;;;;206.80;79.13;;;-7.90;89.40;;;;;;5053899;28;20044;-81
2021/01/28 07:46:54;;;;;;;183.97;75.50;;;-7.70;89.50;;;;;;5051345;28;20476;-81
2021/01/28 07:49:24;;;;;;;226.20;87.63;;;-7.60;90.40;;;;;;5070418;28;20486;-81
2021/01/28 07:51:59;;;;;;;341.27;123.70;;;-7.40;90.40;;;;;;5072000;28;20037;-81
2021/01/28 07:54:24;;;;;;;314.13;110.40;;;-7.20;90.40;;;;;;5074415;28;20017;-81
2021/01/28 07:56:57;;;;;;;307.67;111.03;;;-7.10;90.60;;;;;;5075229;28;20043;-81
2021/01/28 07:59:22;;;;;;;;;;;-6.80;93.70;;;;;;5074393;28;20029;-81
2021/01/28 08:01:52;;;;;;;316.97;102.13;;;-6.70;93.30;;;;;;5074315;28;19974;-81
2021/01/28 08:04:42;;;;;;;641.80;249.93;;;-6.50;94.70;;;;;;5057423;28;20059;-81
2021/01/28 08:07:11;;;;;;;343.73;118.20;;;-6.20;94.70;;;;;;5073939;28;20083;-81
2021/01/28 08:09:49;;;;;;;273.53;104.03;;;-6.00;95.60;;;;;;5058815;28;20052;-81
2021/01/28 08:12:25;;;;;;;149.53;57.00;;;-5.70;98.10;;;;;;5058611;28;20028;-81
2021/01/28 08:14:53;;;;;;;157.43;60.93;;;-5.40;99.90;;;;;;5074631;28;20024;-81
2021/01/28 08:17:28;;;;;;;142.30;55.40;;;-5.20;99.90;;;;;;5072453;28;20547;-82
2021/01/28 08:20:17;;;;;;;126.43;53.13;;;-4.90;99.90;;;;;;5073252;28;20033;-82
2021/01/28 08:23:13;;;;;;;113.27;47.07;;;-4.60;99.90;;;;;;5047662;28;20561;-79
2021/01/28 08:25:56;;;;;;;88.93;35.73;;;-4.40;99.90;;;;;;5026623;28;20442;-79
2021/01/28 08:28:23;;;;;;;64.05;29.90;;;-4.10;99.90;;;;;;5071989;28;20032;-79
2021/01/28 08:30:48;;;;;;;73.70;29.87;;;-3.90;99.90;;;;;;5074867;28;20593;-80
2021/01/28 08:33:23;;;;;;;77.22;34.83;;;-3.70;99.90;;;;;;5074861;28;20099;-79
2021/01/28 08:35:55;;;;;;;76.63;33.13;;;-3.50;99.90;;;;;;5073675;28;20020;-80
2021/01/28 08:38:26;;;;;;;180.07;73.63;;;-3.40;98.80;;;;;;5057087;28;20390;-80
2021/01/28 08:41:12;;;;;;;114.22;46.83;;;-3.20;96.70;;;;;;5075014;28;20270;-79
2021/01/28 08:43:38;;;;;;;80.85;33.95;;;-3.00;96.50;;;;;;5073434;28;20070;-79
2021/01/28 08:46:07;;;;;;;103.25;41.63;;;-2.70;95.30;;;;;;5073518;28;20115;-79
2021/01/28 08:48:33;;;;;;;109.05;46.03;;;-2.60;93.80;;;;;;5073100;28;20497;-80
2021/01/28 08:51:04;;;;;;;62.70;27.38;;;-2.40;90.70;;;;;;5056496;28;20048;-80
2021/01/28 08:53:30;;;;;;;56.88;24.27;;;-2.30;88.60;;;;;;5056481;28;20123;-80
2021/01/28 08:56:14;;;;;;;66.00;28.35;;;-2.20;86.80;;;;;;5073307;28;20127;-80
2021/01/28 08:58:41;;;;;;;66.05;29.45;;;-2.00;86.10;;;;;;5070577;28;20055;-81
2021/01/28 09:01:13;;;;;;;71.13;28.70;;;-1.90;85.10;;;;;;5074496;28;20032;-80
2021/01/28 09:03:50;;;;;;;63.53;27.15;;;-1.70;85.40;;;;;;5067101;28;20481;-81
2021/01/28 09:06:16;;;;;;;43.08;20.25;;;-1.60;84.80;;;;;;5073330;28;20024;-81
2021/01/28 09:08:43;;;;;;;45.72;19.25;;;-1.50;85.30;;;;;;5072084;28;20432;-80
2021/01/28 09:11:11;;;;;;;46.38;22.17;;;-1.50;85.10;;;;;;5073991;28;20055;-81
2021/01/28 09:13:38;;;;;;;33.10;16.05;;;-1.40;83.80;;;;;;5073794;28;20158;-80
2021/01/28 09:16:17;;;;;;;36.60;16.83;;;-1.30;83.60;;;;;;5072248;28;20051;-80
2021/01/28 09:18:49;;;;;;;36.70;16.65;;;-1.10;83.30;;;;;;5073466;28;20462;-79
2021/01/28 09:21:19;;;;;;;40.17;17.25;;;-1.10;80.40;;;;;;5074226;28;20024;-79
2021/01/28 09:23:58;;;;;;;40.75;17.33;;;-1.00;82.50;;;;;;5073978;28;20390;-79
2021/01/28 09:26:31;;;;;;;37.40;17.33;;;-0.90;80.50;;;;;;5074029;28;20032;-79
2021/01/28 09:29:18;;;;;;;34.20;15.02;;;-0.80;80.00;;;;;;5072721;28;20028;-79
2021/01/28 09:31:44;;;;;;;40.70;17.60;;;-0.90;78.70;;;;;;5073762;28;20032;-80
2021/01/28 09:34:22;;;;;;;30.88;15.02;;;-0.90;78.90;;;;;;5066947;28;20030;-79
2021/01/28 09:36:59;;;;;;;33.08;17.00;;;-0.90;79.60;;;;;;5072177;28;20385;-79
2021/01/28 09:39:33;;;;;;;28.20;14.70;;;-0.90;79.90;;;;;;5055913;28;20347;-79
2021/01/28 09:42:21;;;;;;;30.42;15.93;;;-0.90;79.70;;;;;;5072198;28;20047;-79
2021/01/28 09:44:49;;;;;;;31.02;15.73;;;-1.00;78.80;;;;;;5072052;28;20120;-79
2021/01/28 09:47:15;;;;;;;27.23;14.75;;;-1.00;78.90;;;;;;5072308;28;20066;-79
2021/01/28 09:49:41;;;;;;;27.20;15.57;;;-0.90;79.40;;;;;;5073377;28;20108;-79
2021/01/28 09:52:30;;;;;;;27.85;13.88;;;-0.90;79.70;;;;;;5073307;28;20035;-79
2021/01/28 09:55:08;;;;;;;40.75;17.67;;;-0.80;80.70;;;;;;5061851;28;20162;-79
2021/01/28 09:57:34;;;;;;;26.95;14.80;;;-0.70;81.10;;;;;;5071793;28;20028;-79
2021/01/28 09:59:59;;;;;;;32.92;15.98;;;-0.60;81.70;;;;;;5072646;28;20095;-79
2021/01/28 10:02:44;;;;;;;32.38;14.50;;;-0.60;80.90;;;;;;5071610;28;20031;-79
2021/01/28 10:05:12;;;;;;;34.28;15.48;;;-0.50;80.10;;;;;;5069626;28;20603;-79
2021/01/28 10:07:38;;;;;;;34.05;17.25;;;-0.40;80.00;;;;;;5071514;28;20024;-79
2021/01/28 10:10:08;;;;;;;34.05;15.57;;;-0.30;79.70;;;;;;5071518;28;20390;-79
2021/01/28 10:12:34;;;;;;;31.85;15.13;;;-0.30;79.50;;;;;;5075802;28;20051;-80
2021/01/28 10:15:00;;;;;;;32.65;17.67;;;-0.10;79.40;;;;;;5072460;28;20028;-80
2021/01/28 10:17:26;;;;;;;35.17;16.63;;;0.00;79.60;;;;;;5071664;28;20497;-80
2021/01/28 10:19:51;;;;;;;32.17;17.30;;;0.10;79.20;;;;;;5071641;28;20055;-77
2021/01/28 10:22:20;;;;;;;35.28;17.77;;;0.10;78.20;;;;;;5073112;28;20079;-77
2021/01/28 10:24:46;;;;;;;36.63;17.17;;;0.10;78.30;;;;;;5071200;28;20036;-77
2021/01/28 10:27:12;;;;;;;34.35;16.90;;;0.10;78.50;;;;;;5058843;28;20025;-78
2021/01/28 10:29:41;;;;;;;35.17;17.35;;;0.30;79.00;;;;;;5058845;28;20025;-77
2021/01/28 10:32:10;;;;;;;52.90;20.52;;;0.30;78.30;;;;;;5071245;28;20460;-78
2021/01/28 10:34:36;;;;;;;34.85;17.67;;;0.40;78.80;;;;;;5071216;28;20016;-78
2021/01/28 10:37:03;;;;;;;39.28;18.40;;;0.40;77.90;;;;;;5071019;28;20428;-78
2021/01/28 10:39:28;;;;;;;39.70;18.65;;;0.40;77.40;;;;;;5070765;28;20489;-78
2021/01/28 10:41:54;;;;;;;37.85;19.17;;;0.50;77.80;;;;;;5071383;28;20030;-78
2021/01/28 10:44:21;;;;;;;41.97;19.35;;;0.50;77.80;;;;;;5054472;28;20032;-78
2021/01/28 10:46:46;;;;;;;40.67;20.95;;;0.60;78.00;;;;;;5069114;28;20029;-78
2021/01/28 10:49:13;;;;;;;47.75;18.88;;;0.70;78.30;;;;;;5068425;28;20025;-78
2021/01/28 10:51:39;;;;;;;42.28;20.33;;;0.60;76.90;;;;;;5072116;28;20021;-78
2021/01/28 10:54:05;;;;;;;36.88;19.05;;;0.70;77.50;;;;;;5066945;28;20403;-78
2021/01/28 10:56:30;;;;;;;45.35;20.85;;;0.80;77.80;;;;;;5080092;28;20466;-78
2021/01/28 10:58:56;;;;;;;39.28;20.25;;;0.80;76.80;;;;;;5069899;28;20032;-78
2021/01/28 11:01:22;;;;;;;49.83;22.02;;;0.70;77.00;;;;;;5065392;28;20103;-78
2021/01/28 11:03:48;;;;;;;44.90;21.27;;;0.70;77.30;;;;;;5072404;28;20056;-77
2021/01/28 11:06:14;;;;;;;49.95;22.23;;;0.70;77.20;;;;;;5068775;28;20098;-77
2021/01/28 11:08:40;;;;;;;42.33;21.02;;;0.70;77.80;;;;;;5071735;28;20036;-78
2021/01/28 11:11:06;;;;;;;43.55;21.77;;;0.70;78.20;;;;;;5070423;28;20024;-78
2021/01/28 11:13:32;;;;;;;41.05;20.02;;;0.90;78.80;;;;;;5069012;28;20474;-78
2021/01/28 11:15:58;;;;;;;44.58;20.67;;;0.90;77.90;;;;;;5068575;28;20036;-78
2021/01/28 11:18:24;;;;;;;39.70;19.40;;;0.90;78.60;;;;;;5070918;28;20028;-78
2021/01/28 11:20:49;;;;;;;43.42;20.15;;;1.00;78.60;;;;;;5071818;28;20028;-78
2021/01/28 11:23:15;;;;;;;49.72;24.48;;;1.20;79.40;;;;;;5071940;28;20072;-78
2021/01/28 11:25:41;;;;;;;38.28;16.98;;;1.30;77.60;;;;;;5071925;28;20031;-79
2021/01/28 11:28:07;;;;;;;63.83;29.63;;;1.30;77.70;;;;;;5052514;28;20032;-79
2021/01/28 11:30:34;;;;;;;47.90;22.40;;;1.10;78.10;;;;;;5070078;28;20028;-79
2021/01/28 11:33:01;;;;;;;43.65;20.20;;;1.10;79.40;;;;;;5066392;28;20025;-79
2021/01/28 11:35:30;;;;;;;49.15;20.58;;;1.20;80.80;;;;;;5070415;28;20091;-79
2021/01/28 11:37:57;;;;;;;49.22;22.35;;;1.10;80.00;;;;;;5071828;28;20020;-79
2021/01/28 11:40:24;;;;;;;48.88;21.63;;;1.10;80.80;;;;;;5067910;28;20032;-80
2021/01/28 11:42:50;;;;;;;44.75;21.52;;;1.00;80.70;;;;;;5070998;28;20050;-80
2021/01/28 11:45:18;;;;;;;32.47;17.35;;;1.10;81.80;;;;;;5069307;28;20039;-80
2021/01/28 11:47:43;;;;;;;29.83;14.60;;;1.30;82.30;;;;;;5069725;28;20483;-79
2021/01/28 11:50:10;;;;;;;29.17;15.68;;;1.30;81.10;;;;;;5069051;28;20111;-79
2021/01/28 11:52:36;;;;;;;29.25;14.57;;;1.40;80.10;;;;;;5071338;28;20111;-79
2021/01/28 11:55:05;;;;;;;35.60;16.40;;;1.40;80.90;;;;;;5069643;28;20147;-80
2021/01/28 11:57:31;;;;;;;25.00;13.98;;;1.40;81.50;;;;;;5068738;28;20008;-80
2021/01/28 11:59:57;;;;;;;33.67;17.17;;;1.30;81.00;;;;;;5083068;28;20031;-79
2021/01/28 12:02:22;;;;;;;27.20;12.35;;;1.30;82.50;;;;;;5069070;28;20409;-79
2021/01/28 12:04:48;;;;;;;25.27;12.80;;;1.20;82.70;;;;;;5068969;28;20035;-79
2021/01/28 12:07:17;;;;;;;26.27;12.93;;;1.30;83.40;;;;;;5069821;28;20035;-78
2021/01/28 12:09:44;;;;;;;29.65;14.60;;;1.30;83.70;;;;;;5049702;28;20021;-78
2021/01/28 12:12:10;;;;;;;29.30;13.90;;;1.20;83.70;;;;;;5071058;28;20031;-79
2021/01/28 12:14:35;;;;;;;30.52;15.57;;;1.20;84.60;;;;;;5059423;28;20033;-79
2021/01/28 12:17:01;;;;;;;23.75;12.40;;;1.30;85.60;;;;;;5067422;28;20025;-79
2021/01/28 12:19:27;;;;;;;22.17;12.48;;;1.20;85.00;;;;;;5069598;28;20393;-79
2021/01/28 12:21:53;;;;;;;28.38;14.52;;;1.20;85.90;;;;;;5069216;28;20431;-79
2021/01/28 12:24:18;;;;;;;24.65;12.07;;;1.10;85.80;;;;;;5052979;28;20405;-79
2021/01/28 12:26:44;;;;;;;27.75;12.98;;;1.10;85.60;;;;;;5052673;28;20032;-79
2021/01/28 12:29:10;;;;;;;27.15;12.93;;;1.10;85.90;;;;;;5068901;28;20029;-79
2021/01/28 12:31:35;;;;;;;25.10;12.95;;;1.10;87.40;;;;;;5069921;28;20035;-80
2021/01/28 12:34:01;;;;;;;27.95;12.48;;;1.20;88.80;;;;;;5069553;28;20070;-80
2021/01/28 12:36:27;;;;;;;29.85;12.82;;;1.20;87.20;;;;;;5071390;28;20068;-80
2021/01/28 12:38:52;;;;;;;26.08;13.88;;;1.20;88.10;;;;;;5072348;28;20031;-80
2021/01/28 12:41:18;;;;;;;25.45;13.27;;;1.20;89.70;;;;;;5075186;28;20055;-80
2021/01/28 12:43:44;;;;;;;30.63;13.70;;;1.10;93.40;;;;;;5069567;28;20029;-81
2021/01/28 12:46:10;;;;;;;27.77;13.30;;;1.10;97.80;;;;;;5073738;28;20478;-81